TAF KDET
KDET 280540Z 2806/2906 28004KT 4SM BR BKN006 OVC014 FM280800 29006KT P6SM BKN016 FM281400 24007KT 6SM -SHSN BKN022 OVC040 FM281700 29016G25KT P6SM BKN035 OVC060 TEMPO 2818/2822 6SM -SHSN BKN028 OVC050 FM290200 31012G20KT P6SM SCT040 BKN060=
METAR KDET
SPECI KDET 280919Z 30004KT 6SM BR BKN012 OVC018 01/M01 A2980 RMK AO2 T00061011 ?
KDET 280853Z 31005KT 5SM BR OVC015 01/M01 A2980 RMK AO2 SLP097 T00061011 51010 ?
SPECI KDET 280818Z 32005KT 5SM BR FEW005 OVC013 01/M01 A2980 RMK AO2 T00061011 ?
KDET 280753Z 32004KT 4SM BR BKN005 OVC011 01/M01 A2979 RMK AO2 CIG 004V008 SLP095 T00061006 ?
SPECI KDET 280704Z 32005KT 4SM BR OVC005 01/M01 A2978 RMK AO2 CIG 003V010 T00061006 ?
WC KDET
WS KDET
WV KDET